Time;durP1;ratioP1;P1;durP2;ratioP2;P2;SDS_P1;SDS_P2;PMS_P1;PMS_P2;Temp;Humidity;BMP_temperature;BMP_pressure;BME280_temperature;BME280_humidity;BME280_pressure;Samples;Min_cycle;Max_cycle;Signal;HPM_P1;HPM_P2
2023/09/22 00:00:15;;;;;;;0.30;0.30;;;;;;;;;;4929818;29;20043;-59
2023/09/22 00:02:47;;;;;;;0.30;0.30;;;;;;;;;;4930934;29;20027;-59
2023/09/22 00:05:13;;;;;;;0.30;0.30;;;;;;;;;;4928970;29;20483;-59
2023/09/22 00:07:40;;;;;;;0.30;0.30;;;;;;;;;;4928922;29;20023;-58
2023/09/22 00:10:06;;;;;;;0.30;0.30;;;;;;;;;;4944769;28;20700;-61
2023/09/22 00:12:31;;;;;;;0.30;0.30;;;;;;;;;;4958275;28;20453;-58
2023/09/22 00:14:57;;;;;;;0.30;0.30;;;;;;;;;;4929720;29;20036;-59
2023/09/22 00:17:23;;;;;;;0.20;0.20;;;;;;;;;;4956327;28;20047;-58
2023/09/22 00:19:48;;;;;;;0.30;0.30;;;;;;;;;;4928198;29;20110;-58
2023/09/22 00:22:13;;;;;;;0.30;0.30;;;;;;;;;;4926490;29;20047;-59
2023/09/22 00:24:38;;;;;;;0.30;0.30;;;;;;;;;;4928364;28;20689;-58
2023/09/22 00:27:04;;;;;;;0.30;0.30;;;;;;;;;;4925602;29;20143;-60
2023/09/22 00:29:29;;;;;;;0.30;0.30;;;;;;;;;;4926835;29;20114;-59
2023/09/22 00:31:55;;;;;;;0.30;0.30;;;;;;;;;;4927537;29;20031;-57
2023/09/22 00:34:20;;;;;;;0.30;0.30;;;;;;;;;;4928784;29;20115;-62
2023/09/22 00:36:48;;;;;;;0.30;0.30;;;;;;;;;;4926895;29;20106;-60
2023/09/22 00:39:13;;;;;;;0.20;0.20;;;;;;;;;;4927526;29;20043;-61
2023/09/22 00:41:39;;;;;;;0.28;0.28;;;;;;;;;;4928726;29;20024;-59
2023/09/22 00:44:05;;;;;;;0.30;0.30;;;;;;;;;;4934910;29;20557;-59
2023/09/22 00:46:30;;;;;;;0.30;0.30;;;;;;;;;;4956935;28;20039;-60
2023/09/22 00:48:56;;;;;;;0.20;0.20;;;;;;;;;;4927751;29;20039;-59
2023/09/22 00:51:21;;;;;;;0.30;0.30;;;;;;;;;;4928257;29;20031;-64
2023/09/22 00:53:48;;;;;;;0.30;0.30;;;;;;;;;;4927898;28;20062;-59
2023/09/22 00:56:16;;;;;;;0.30;0.30;;;;;;;;;;4926835;29;20102;-63
2023/09/22 00:58:42;;;;;;;0.30;0.30;;;;;;;;;;4943722;28;20540;-62
2023/09/22 01:01:08;;;;;;;0.30;0.30;;;;;;;;;;4928866;29;20114;-61
2023/09/22 01:03:33;;;;;;;0.30;0.30;;;;;;;;;;4931553;29;20119;-59
2023/09/22 01:05:59;;;;;;;0.25;0.25;;;;;;;;;;4956435;28;20130;-59
2023/09/22 01:08:24;;;;;;;0.20;0.20;;;;;;;;;;4942652;28;20130;-60
2023/09/22 01:10:49;;;;;;;0.30;0.30;;;;;;;;;;4944140;28;20117;-63
2023/09/22 01:13:15;;;;;;;0.30;0.30;;;;;;;;;;4926576;29;20028;-58
2023/09/22 01:15:41;;;;;;;0.30;0.30;;;;;;;;;;4926813;29;20031;-63
2023/09/22 01:18:06;;;;;;;0.30;0.30;;;;;;;;;;4956433;28;20130;-60
2023/09/22 01:20:37;;;;;;;0.30;0.30;;;;;;;;;;4943605;28;20451;-58
2023/09/22 01:23:03;;;;;;;0.30;0.30;;;;;;;;;;4955867;28;20027;-57
2023/09/22 01:25:28;;;;;;;0.30;0.30;;;;;;;;;;4955599;28;20090;-62
2023/09/22 01:27:53;;;;;;;0.30;0.30;;;;;;;;;;4954335;28;20185;-59
2023/09/22 01:30:19;;;;;;;0.30;0.30;;;;;;;;;;4929639;29;20403;-58
2023/09/22 01:32:44;;;;;;;0.30;0.30;;;;;;;;;;4926918;29;20446;-60
2023/09/22 01:35:10;;;;;;;0.30;0.30;;;;;;;;;;4942337;28;20047;-62
2023/09/22 01:37:55;;;;;;;0.20;0.20;;;;;;;;;;4926788;29;20042;-61
2023/09/22 01:40:20;;;;;;;0.30;0.30;;;;;;;;;;4925393;29;20549;-62
2023/09/22 01:42:46;;;;;;;0.30;0.30;;;;;;;;;;4940827;28;20081;-58
2023/09/22 01:45:11;;;;;;;0.30;0.30;;;;;;;;;;4935361;28;20473;-59
2023/09/22 01:47:39;;;;;;;0.30;0.30;;;;;;;;;;4925436;29;20484;-63
2023/09/22 01:50:07;;;;;;;0.30;0.30;;;;;;;;;;4941198;28;20083;-61
2023/09/22 01:52:32;;;;;;;0.30;0.30;;;;;;;;;;4958040;28;20055;-58
2023/09/22 01:54:57;;;;;;;0.30;0.30;;;;;;;;;;4942196;28;20466;-59
2023/09/22 01:57:23;;;;;;;0.30;0.30;;;;;;;;;;4958290;28;20038;-61
2023/09/22 01:59:49;;;;;;;0.30;0.30;;;;;;;;;;4958209;28;20031;-62
2023/09/22 02:02:15;;;;;;;0.30;0.30;;;;;;;;;;4946727;28;20034;-62
2023/09/22 02:04:40;;;;;;;0.30;0.30;;;;;;;;;;4939235;28;20466;-58
2023/09/22 02:07:06;;;;;;;0.30;0.30;;;;;;;;;;4954134;28;20505;-62
2023/09/22 02:09:31;;;;;;;0.30;0.30;;;;;;;;;;4925379;29;20066;-60
2023/09/22 02:11:56;;;;;;;0.30;0.30;;;;;;;;;;4926973;29;20374;-60
2023/09/22 02:14:22;;;;;;;0.30;0.30;;;;;;;;;;4929018;29;20478;-59
2023/09/22 02:16:47;;;;;;;0.30;0.30;;;;;;;;;;4957832;28;20059;-60
2023/09/22 02:19:13;;;;;;;0.30;0.30;;;;;;;;;;4925856;29;20809;-64
2023/09/22 02:21:39;;;;;;;0.30;0.30;;;;;;;;;;4926185;29;20032;-60
2023/09/22 02:24:05;;;;;;;0.30;0.30;;;;;;;;;;4941415;28;20367;-58
2023/09/22 02:26:31;;;;;;;0.30;0.30;;;;;;;;;;4927159;29;20050;-61
2023/09/22 02:28:56;;;;;;;0.30;0.30;;;;;;;;;;4925485;29;20028;-59
2023/09/22 02:31:22;;;;;;;0.30;0.30;;;;;;;;;;4925492;29;20114;-61
2023/09/22 02:33:48;;;;;;;0.30;0.30;;;;;;;;;;4922968;29;20374;-63
2023/09/22 02:36:13;;;;;;;0.30;0.30;;;;;;;;;;4939746;28;20035;-59
2023/09/22 02:38:39;;;;;;;0.30;0.30;;;;;;;;;;4927433;29;20064;-59
2023/09/22 02:41:04;;;;;;;0.30;0.30;;;;;;;;;;4942893;28;20055;-62
2023/09/22 02:43:30;;;;;;;0.30;0.30;;;;;;;;;;4928721;29;20016;-59
2023/09/22 02:45:55;;;;;;;0.30;0.30;;;;;;;;;;4922873;29;21827;-63
2023/09/22 02:48:20;;;;;;;0.30;0.30;;;;;;;;;;4927471;29;20031;-60
2023/09/22 02:50:46;;;;;;;0.30;0.30;;;;;;;;;;4945902;28;20036;-60
2023/09/22 02:53:11;;;;;;;0.30;0.30;;;;;;;;;;4947336;28;20055;-59
2023/09/22 02:55:37;;;;;;;0.30;0.30;;;;;;;;;;4933447;29;20043;-61
2023/09/22 02:58:02;;;;;;;0.30;0.30;;;;;;;;;;4960864;28;20027;-59
2023/09/22 03:00:28;;;;;;;0.30;0.30;;;;;;;;;;4927317;29;20030;-59
2023/09/22 03:02:53;;;;;;;0.30;0.30;;;;;;;;;;4941079;28;20417;-63
2023/09/22 03:05:19;;;;;;;0.30;0.30;;;;;;;;;;4929594;29;20543;-60
2023/09/22 03:07:47;;;;;;;0.30;0.30;;;;;;;;;;4943172;28;20031;-63
2023/09/22 03:10:13;;;;;;;0.40;0.40;;;;;;;;;;4943400;28;20030;-59
2023/09/22 03:12:38;;;;;;;0.30;0.30;;;;;;;;;;4957268;28;20046;-63
2023/09/22 03:15:06;;;;;;;0.30;0.30;;;;;;;;;;4960482;28;20102;-62
2023/09/22 03:17:32;;;;;;;0.38;0.38;;;;;;;;;;4929862;29;20035;-60
2023/09/22 03:19:58;;;;;;;0.30;0.30;;;;;;;;;;4943553;28;20103;-62
2023/09/22 03:22:23;;;;;;;0.30;0.30;;;;;;;;;;4958643;28;20027;-62
2023/09/22 03:24:49;;;;;;;0.30;0.30;;;;;;;;;;4929109;29;20122;-59
2023/09/22 03:27:15;;;;;;;0.30;0.30;;;;;;;;;;4958905;28;21624;-62
2023/09/22 03:29:40;;;;;;;0.30;0.30;;;;;;;;;;4944018;28;20051;-61
2023/09/22 03:32:06;;;;;;;0.30;0.30;;;;;;;;;;4944770;28;20031;-64
2023/09/22 03:34:31;;;;;;;0.40;0.40;;;;;;;;;;4926886;29;20422;-63
2023/09/22 03:36:58;;;;;;;0.30;0.30;;;;;;;;;;4944904;28;20023;-58
2023/09/22 03:39:27;;;;;;;0.30;0.30;;;;;;;;;;4958561;28;20034;-59
2023/09/22 03:41:54;;;;;;;0.30;0.30;;;;;;;;;;4929749;29;20382;-65
2023/09/22 03:44:19;;;;;;;0.40;0.40;;;;;;;;;;4929394;29;20410;-60
2023/09/22 03:46:46;;;;;;;0.30;0.30;;;;;;;;;;4959074;28;20032;-63
2023/09/22 03:49:11;;;;;;;0.30;0.30;;;;;;;;;;4958590;28;20050;-61
2023/09/22 03:51:36;;;;;;;0.30;0.30;;;;;;;;;;4944009;28;20082;-62
2023/09/22 03:54:02;;;;;;;0.30;0.30;;;;;;;;;;4947391;28;20559;-61
2023/09/22 03:56:28;;;;;;;0.30;0.30;;;;;;;;;;4927508;29;20036;-62
2023/09/22 03:58:54;;;;;;;0.30;0.30;;;;;;;;;;4928343;29;20075;-61
2023/09/22 04:01:19;;;;;;;0.30;0.30;;;;;;;;;;4941135;28;20086;-58
2023/09/22 04:03:47;;;;;;;0.30;0.30;;;;;;;;;;4941762;28;20110;-63
2023/09/22 04:06:12;;;;;;;0.30;0.30;;;;;;;;;;4926368;29;20054;-60
2023/09/22 04:08:38;;;;;;;0.30;0.30;;;;;;;;;;4946581;28;20413;-60
2023/09/22 04:11:03;;;;;;;0.30;0.30;;;;;;;;;;4931372;29;20333;-59
2023/09/22 04:13:29;;;;;;;0.40;0.40;;;;;;;;;;4927148;29;20126;-59
2023/09/22 04:16:01;;;;;;;0.40;0.40;;;;;;;;;;4945387;28;20035;-58
2023/09/22 04:18:29;;;;;;;0.30;0.30;;;;;;;;;;4931009;29;20023;-59
2023/09/22 04:20:55;;;;;;;0.30;0.30;;;;;;;;;;4927427;29;20032;-61
2023/09/22 04:23:21;;;;;;;0.40;0.40;;;;;;;;;;4928733;29;20453;-60
2023/09/22 04:25:47;;;;;;;0.40;0.40;;;;;;;;;;4931585;28;20122;-63
2023/09/22 04:28:17;;;;;;;0.35;0.35;;;;;;;;;;4928409;29;20039;-63
2023/09/22 04:30:42;;;;;;;0.40;0.40;;;;;;;;;;4929618;29;20422;-59
2023/09/22 04:33:10;;;;;;;0.30;0.30;;;;;;;;;;4926091;29;20023;-58
2023/09/22 04:35:37;;;;;;;0.40;0.40;;;;;;;;;;4928552;29;20043;-60
2023/09/22 04:38:04;;;;;;;0.30;0.30;;;;;;;;;;4926391;29;20044;-59
2023/09/22 04:40:36;;;;;;;0.40;0.40;;;;;;;;;;4926772;29;20142;-60
2023/09/22 04:43:02;;;;;;;0.30;0.30;;;;;;;;;;4926630;29;20042;-59
2023/09/22 04:45:27;;;;;;;0.30;0.30;;;;;;;;;;4925922;28;20035;-60
2023/09/22 04:47:54;;;;;;;0.40;0.40;;;;;;;;;;4926823;29;20541;-60
2023/09/22 04:50:19;;;;;;;0.30;0.30;;;;;;;;;;4930517;28;20635;-62
2023/09/22 04:52:45;;;;;;;0.30;0.30;;;;;;;;;;4926710;29;20282;-61
2023/09/22 04:55:11;;;;;;;0.40;0.40;;;;;;;;;;4926178;29;20043;-60
2023/09/22 04:57:36;;;;;;;0.40;0.40;;;;;;;;;;4930429;29;20035;-60
2023/09/22 05:00:05;;;;;;;0.40;0.40;;;;;;;;;;4927841;29;20084;-59
2023/09/22 05:02:30;;;;;;;0.30;0.30;;;;;;;;;;4926298;29;20059;-62
2023/09/22 05:04:55;;;;;;;0.30;0.30;;;;;;;;;;4927646;28;20035;-60
2023/09/22 05:07:21;;;;;;;0.30;0.30;;;;;;;;;;4927169;29;20599;-58
2023/09/22 05:09:46;;;;;;;0.30;0.30;;;;;;;;;;4924534;29;20036;-58
2023/09/22 05:12:11;;;;;;;0.40;0.40;;;;;;;;;;4928710;29;20032;-60
2023/09/22 05:14:37;;;;;;;0.40;0.40;;;;;;;;;;4927940;28;20044;-58
2023/09/22 05:17:02;;;;;;;0.30;0.30;;;;;;;;;;4926375;29;20101;-60
2023/09/22 05:19:28;;;;;;;0.40;0.40;;;;;;;;;;4928176;29;20027;-59
2023/09/22 05:21:54;;;;;;;0.30;0.30;;;;;;;;;;4927296;29;20032;-58
2023/09/22 05:24:19;;;;;;;0.30;0.30;;;;;;;;;;4928964;29;21233;-58
2023/09/22 05:26:44;;;;;;;0.30;0.30;;;;;;;;;;4928748;29;20820;-61
2023/09/22 05:29:10;;;;;;;0.30;0.30;;;;;;;;;;4927686;29;20024;-58
2023/09/22 05:31:36;;;;;;;0.30;0.30;;;;;;;;;;4928304;29;20035;-59
2023/09/22 05:34:02;;;;;;;0.30;0.30;;;;;;;;;;4930185;29;20031;-60
2023/09/22 05:36:29;;;;;;;0.30;0.30;;;;;;;;;;4929693;28;20031;-59
2023/09/22 05:38:55;;;;;;;0.40;0.40;;;;;;;;;;4929010;29;20030;-63
2023/09/22 05:41:20;;;;;;;0.40;0.40;;;;;;;;;;4928905;29;20035;-60
2023/09/22 05:43:45;;;;;;;0.30;0.30;;;;;;;;;;4927495;29;20038;-62
2023/09/22 05:46:11;;;;;;;0.40;0.40;;;;;;;;;;4927121;29;20028;-64
2023/09/22 05:48:36;;;;;;;0.40;0.40;;;;;;;;;;4928150;29;20094;-61
2023/09/22 05:51:01;;;;;;;0.30;0.30;;;;;;;;;;4928078;29;20031;-60
2023/09/22 05:53:27;;;;;;;0.40;0.40;;;;;;;;;;4928836;28;20103;-63
2023/09/22 05:56:03;;;;;;;0.30;0.30;;;;;;;;;;4928672;29;20024;-60
2023/09/22 05:58:28;;;;;;;0.40;0.40;;;;;;;;;;4929851;29;20020;-57
2023/09/22 06:00:53;;;;;;;0.30;0.30;;;;;;;;;;4960683;28;20028;-58
2023/09/22 06:03:20;;;;;;;0.40;0.40;;;;;;;;;;4929214;29;20075;-60
2023/09/22 06:05:46;;;;;;;0.40;0.40;;;;;;;;;;4927230;29;20482;-60
2023/09/22 06:08:12;;;;;;;0.40;0.40;;;;;;;;;;4928889;29;20454;-57
2023/09/22 06:10:37;;;;;;;0.30;0.30;;;;;;;;;;4928583;29;20032;-60
2023/09/22 06:13:03;;;;;;;0.30;0.30;;;;;;;;;;4929217;29;20046;-58
2023/09/22 06:15:28;;;;;;;0.30;0.30;;;;;;;;;;4946122;28;20086;-58
2023/09/22 06:17:54;;;;;;;0.30;0.30;;;;;;;;;;4930398;29;20023;-59
2023/09/22 06:20:20;;;;;;;0.30;0.30;;;;;;;;;;4929071;29;20036;-60
2023/09/22 06:22:52;;;;;;;0.30;0.30;;;;;;;;;;4929979;29;20036;-58
2023/09/22 06:25:18;;;;;;;0.30;0.30;;;;;;;;;;4931361;29;20093;-59
2023/09/22 06:27:44;;;;;;;0.30;0.30;;;;;;;;;;4932920;29;20410;-59
2023/09/22 06:30:12;;;;;;;0.30;0.30;;;;;;;;;;4927465;29;20027;-62
2023/09/22 06:32:40;;;;;;;0.30;0.30;;;;;;;;;;4929657;29;20040;-59
2023/09/22 06:35:08;;;;;;;0.30;0.30;;;;;;;;;;4930036;29;20035;-60
2023/09/22 06:37:34;;;;;;;0.30;0.30;;;;;;;;;;4929670;29;20028;-62
2023/09/22 06:39:59;;;;;;;0.30;0.30;;;;;;;;;;4933046;29;20029;-61
2023/09/22 06:42:24;;;;;;;0.30;0.30;;;;;;;;;;4934331;29;20128;-58
2023/09/22 06:44:50;;;;;;;0.30;0.30;;;;;;;;;;4934779;28;20046;-58
2023/09/22 06:47:15;;;;;;;0.30;0.30;;;;;;;;;;4929215;29;20031;-60
2023/09/22 06:49:40;;;;;;;0.35;0.35;;;;;;;;;;4932648;29;20030;-59
2023/09/22 06:52:07;;;;;;;0.30;0.30;;;;;;;;;;4932457;29;20028;-62
2023/09/22 06:54:32;;;;;;;0.30;0.30;;;;;;;;;;4931553;29;20031;-58
2023/09/22 06:57:01;;;;;;;0.30;0.30;;;;;;;;;;4930710;29;20034;-61
2023/09/22 06:59:27;;;;;;;0.30;0.30;;;;;;;;;;4931132;29;20038;-59
2023/09/22 07:01:52;;;;;;;0.30;0.30;;;;;;;;;;4931547;29;20032;-59
2023/09/22 07:04:19;;;;;;;0.30;0.30;;;;;;;;;;4932345;29;20086;-61
2023/09/22 07:06:44;;;;;;;0.40;0.40;;;;;;;;;;4932466;29;20031;-58
2023/09/22 07:09:11;;;;;;;0.30;0.30;;;;;;;;;;4945958;28;20058;-63
2023/09/22 07:11:40;;;;;;;0.30;0.30;;;;;;;;;;4934702;29;20569;-59
2023/09/22 07:14:06;;;;;;;0.30;0.30;;;;;;;;;;4931677;28;20160;-60
2023/09/22 07:16:32;;;;;;;0.30;0.30;;;;;;;;;;4930135;29;20629;-60
2023/09/22 07:18:58;;;;;;;0.37;0.37;;;;;;;;;;4928881;29;20042;-59
2023/09/22 07:21:23;;;;;;;0.30;0.30;;;;;;;;;;4931323;29;20024;-58
2023/09/22 07:23:48;;;;;;;0.30;0.30;;;;;;;;;;4931383;29;20146;-60
2023/09/22 07:26:13;;;;;;;0.30;0.30;;;;;;;;;;4946423;28;20032;-60
2023/09/22 07:28:39;;;;;;;0.30;0.30;;;;;;;;;;4929571;29;20028;-60
2023/09/22 07:31:14;;;;;;;0.30;0.30;;;;;;;;;;4962264;28;20078;-59
2023/09/22 07:33:40;;;;;;;0.32;0.32;;;;;;;;;;4930970;29;20512;-61
2023/09/22 07:36:07;;;;;;;0.30;0.30;;;;;;;;;;4928774;28;20035;-60
2023/09/22 07:38:33;;;;;;;0.30;0.30;;;;;;;;;;4929400;29;20024;-59
2023/09/22 07:40:59;;;;;;;0.30;0.30;;;;;;;;;;4930535;29;20042;-63
2023/09/22 07:43:29;;;;;;;0.30;0.30;;;;;;;;;;4932463;29;20025;-59
2023/09/22 07:45:54;;;;;;;0.30;0.30;;;;;;;;;;4929380;28;20106;-61
2023/09/22 07:48:19;;;;;;;0.30;0.30;;;;;;;;;;4924080;29;20389;-59
2023/09/22 07:50:45;;;;;;;0.30;0.30;;;;;;;;;;4930839;29;20019;-60
2023/09/22 07:53:10;;;;;;;0.30;0.30;;;;;;;;;;4928229;28;20370;-62
2023/09/22 07:55:35;;;;;;;0.30;0.30;;;;;;;;;;4928020;29;20389;-59
2023/09/22 07:58:03;;;;;;;0.30;0.30;;;;;;;;;;4929310;29;20086;-60
2023/09/22 08:00:29;;;;;;;0.30;0.30;;;;;;;;;;4928659;29;20034;-61
2023/09/22 08:02:54;;;;;;;0.30;0.30;;;;;;;;;;4944032;28;20024;-62
2023/09/22 08:05:20;;;;;;;0.30;0.30;;;;;;;;;;4929135;29;20139;-59
2023/09/22 08:07:46;;;;;;;0.30;0.30;;;;;;;;;;4916519;28;20051;-59
2023/09/22 08:10:12;;;;;;;0.30;0.30;;;;;;;;;;4928748;29;20050;-59
2023/09/22 08:12:38;;;;;;;0.30;0.30;;;;;;;;;;4930122;29;20462;-60
2023/09/22 08:15:03;;;;;;;0.30;0.30;;;;;;;;;;4928707;29;20043;-58
2023/09/22 08:17:29;;;;;;;0.30;0.30;;;;;;;;;;4921381;28;20034;-59
2023/09/22 08:19:54;;;;;;;0.20;0.20;;;;;;;;;;4926261;29;20111;-61
2023/09/22 08:22:20;;;;;;;0.30;0.30;;;;;;;;;;4928701;29;20414;-58
2023/09/22 08:24:46;;;;;;;0.20;0.20;;;;;;;;;;4932419;29;20422;-60
2023/09/22 08:27:12;;;;;;;0.20;0.20;;;;;;;;;;4928806;29;20039;-62
2023/09/22 08:29:37;;;;;;;0.30;0.30;;;;;;;;;;4929276;29;20027;-59
2023/09/22 08:32:04;;;;;;;0.20;0.20;;;;;;;;;;4928869;28;20047;-59
2023/09/22 08:34:33;;;;;;;0.20;0.20;;;;;;;;;;4929056;29;20409;-59
2023/09/22 08:36:58;;;;;;;0.22;0.22;;;;;;;;;;4929671;29;20857;-60
2023/09/22 08:39:23;;;;;;;0.30;0.30;;;;;;;;;;4930799;29;20042;-59
2023/09/22 08:41:49;;;;;;;0.30;0.30;;;;;;;;;;4930252;29;20035;-59
2023/09/22 08:44:14;;;;;;;0.30;0.30;;;;;;;;;;4931427;28;20044;-60
2023/09/22 08:46:40;;;;;;;0.20;0.20;;;;;;;;;;4947838;28;20031;-60
2023/09/22 08:49:06;;;;;;;0.30;0.30;;;;;;;;;;4929402;29;20033;-59
2023/09/22 08:51:31;;;;;;;0.30;0.30;;;;;;;;;;4930651;29;20122;-59
2023/09/22 08:53:56;;;;;;;0.30;0.30;;;;;;;;;;4928740;29;20038;-61
2023/09/22 08:56:22;;;;;;;0.20;0.20;;;;;;;;;;4929002;29;20027;-60
2023/09/22 08:58:47;;;;;;;0.20;0.20;;;;;;;;;;4929357;29;20043;-60
2023/09/22 09:01:13;;;;;;;0.30;0.30;;;;;;;;;;4928000;29;20051;-60
2023/09/22 09:03:39;;;;;;;0.20;0.20;;;;;;;;;;4928503;29;20429;-59
2023/09/22 09:06:08;;;;;;;0.30;0.30;;;;;;;;;;4930109;29;20059;-59
2023/09/22 09:08:34;;;;;;;0.30;0.30;;;;;;;;;;4928514;29;20446;-61
2023/09/22 09:11:04;;;;;;;0.30;0.30;;;;;;;;;;4941896;28;20130;-61
2023/09/22 09:13:29;;;;;;;0.30;0.30;;;;;;;;;;4957032;28;20278;-62
2023/09/22 09:15:55;;;;;;;0.20;0.20;;;;;;;;;;4927080;29;20394;-61
2023/09/22 09:18:24;;;;;;;0.20;0.20;;;;;;;;;;4925654;29;20070;-61
2023/09/22 09:21:15;;;;;;;0.20;0.20;;;;;;;;;;4954398;28;20040;-61
2023/09/22 09:23:56;;;;;;;0.20;0.20;;;;;;;;;;4927491;29;20441;-60
2023/09/22 09:26:29;;;;;;;0.20;0.20;;;;;;;;;;4958759;28;20057;-62
2023/09/22 09:28:55;;;;;;;0.20;0.20;;;;;;;;;;4927743;29;20035;-62
2023/09/22 09:31:41;;;;;;;0.20;0.20;;;;;;;;;;4926541;29;20134;-59
2023/09/22 09:34:06;;;;;;;0.20;0.20;;;;;;;;;;4927475;29;20121;-59
2023/09/22 09:36:31;;;;;;;0.20;0.20;;;;;;;;;;4931041;29;20168;-60
2023/09/22 09:38:56;;;;;;;0.20;0.20;;;;;;;;;;4929945;29;20032;-59
2023/09/22 09:41:22;;;;;;;0.20;0.20;;;;;;;;;;4942894;28;20040;-62
2023/09/22 09:43:49;;;;;;;0.20;0.20;;;;;;;;;;4956346;28;20069;-60
2023/09/22 09:46:15;;;;;;;0.20;0.20;;;;;;;;;;4953865;28;20030;-59
2023/09/22 09:48:42;;;;;;;0.20;0.20;;;;;;;;;;4926414;29;20019;-61
2023/09/22 09:51:11;;;;;;;0.20;0.20;;;;;;;;;;4929267;29;20024;-62
2023/09/22 09:53:43;;;;;;;0.20;0.20;;;;;;;;;;4926995;29;20024;-60
2023/09/22 09:56:11;;;;;;;0.20;0.20;;;;;;;;;;4925816;29;20052;-62
2023/09/22 09:58:37;;;;;;;0.20;0.20;;;;;;;;;;4926721;29;20027;-62
2023/09/22 10:01:05;;;;;;;0.20;0.20;;;;;;;;;;4928251;29;20039;-60
2023/09/22 10:03:30;;;;;;;0.20;0.20;;;;;;;;;;4927406;29;20401;-60
2023/09/22 10:05:57;;;;;;;0.20;0.20;;;;;;;;;;4926901;29;20042;-62
2023/09/22 10:08:23;;;;;;;0.20;0.20;;;;;;;;;;4927495;29;20028;-62
2023/09/22 10:10:50;;;;;;;0.20;0.20;;;;;;;;;;4929868;29;20282;-60
2023/09/22 10:13:16;;;;;;;0.20;0.20;;;;;;;;;;4926957;29;20032;-61
2023/09/22 10:15:54;;;;;;;0.20;0.20;;;;;;;;;;4927322;29;20379;-61
2023/09/22 10:18:20;;;;;;;0.20;0.20;;;;;;;;;;4925650;29;20091;-63
2023/09/22 10:20:46;;;;;;;0.20;0.20;;;;;;;;;;4930606;29;20023;-60
2023/09/22 10:23:19;;;;;;;0.20;0.20;;;;;;;;;;4927506;29;20103;-62
2023/09/22 10:26:03;;;;;;;0.20;0.20;;;;;;;;;;4929176;29;20110;-60
2023/09/22 10:28:28;;;;;;;0.20;0.20;;;;;;;;;;4926255;29;20390;-62
2023/09/22 10:30:54;;;;;;;0.20;0.20;;;;;;;;;;4926922;29;20034;-64
2023/09/22 10:33:22;;;;;;;0.20;0.20;;;;;;;;;;4926603;29;20488;-61
2023/09/22 10:35:47;;;;;;;0.20;0.20;;;;;;;;;;4924688;29;20036;-63
2023/09/22 10:38:14;;;;;;;0.20;0.20;;;;;;;;;;4928808;29;20393;-62
2023/09/22 10:40:59;;;;;;;0.20;0.20;;;;;;;;;;4924961;28;20042;-63
2023/09/22 10:43:36;;;;;;;0.10;0.10;;;;;;;;;;4928329;29;20494;-62
2023/09/22 10:46:02;;;;;;;0.20;0.20;;;;;;;;;;4926537;29;20370;-60
2023/09/22 10:48:35;;;;;;;0.20;0.20;;;;;;;;;;4927782;29;20098;-62
2023/09/22 10:51:06;;;;;;;0.20;0.20;;;;;;;;;;4928104;28;20110;-63
2023/09/22 10:53:34;;;;;;;0.20;0.20;;;;;;;;;;4926860;29;20139;-61
2023/09/22 10:56:02;;;;;;;0.20;0.20;;;;;;;;;;4927160;29;20555;-63
2023/09/22 10:58:28;;;;;;;0.10;0.10;;;;;;;;;;4944056;28;20031;-63
2023/09/22 11:01:07;;;;;;;0.10;0.10;;;;;;;;;;4940690;28;20557;-64
2023/09/22 11:03:40;;;;;;;0.10;0.10;;;;;;;;;;4928712;29;20034;-64
2023/09/22 11:06:06;;;;;;;0.10;0.10;;;;;;;;;;4931978;28;20569;-62
2023/09/22 11:08:32;;;;;;;0.10;0.10;;;;;;;;;;4927186;29;20042;-61
2023/09/22 11:10:57;;;;;;;0.10;0.10;;;;;;;;;;4927601;29;20027;-62
2023/09/22 11:13:23;;;;;;;0.10;0.10;;;;;;;;;;4931080;29;20031;-61
2023/09/22 11:15:49;;;;;;;0.20;0.20;;;;;;;;;;4964626;28;20127;-61
2023/09/22 11:18:25;;;;;;;0.10;0.10;;;;;;;;;;4943064;28;20757;-61
2023/09/22 11:21:18;;;;;;;0.10;0.10;;;;;;;;;;4932228;29;20023;-60
2023/09/22 11:23:44;;;;;;;0.10;0.10;;;;;;;;;;4927611;29;20044;-61
2023/09/22 11:26:10;;;;;;;0.20;0.20;;;;;;;;;;4932684;29;20040;-61
2023/09/22 11:28:43;;;;;;;0.10;0.10;;;;;;;;;;4933124;29;20043;-61
2023/09/22 11:31:09;;;;;;;0.10;0.10;;;;;;;;;;4932292;29;20032;-61
2023/09/22 11:33:36;;;;;;;0.10;0.10;;;;;;;;;;4947510;29;20036;-62
2023/09/22 11:36:02;;;;;;;;;;;;;;;;;;4930867;29;20054;-60
2023/09/22 11:38:28;;;;;;;;;;;;;;;;;;4931464;29;19918;-63
2023/09/22 11:41:15;;;;;;;0.10;0.10;;;;;;;;;;4931266;29;19918;-62
2023/09/22 11:43:41;;;;;;;0.10;0.10;;;;;;;;;;4931074;29;20114;-61
2023/09/22 11:46:13;;;;;;;0.20;0.20;;;;;;;;;;4930123;29;20031;-61
2023/09/22 11:48:59;;;;;;;0.10;0.10;;;;;;;;;;4932783;29;20036;-61
2023/09/22 11:51:42;;;;;;;0.10;0.10;;;;;;;;;;4932069;29;20055;-61
2023/09/22 11:54:08;;;;;;;0.10;0.10;;;;;;;;;;4959666;28;20122;-62
2023/09/22 11:56:34;;;;;;;0.10;0.10;;;;;;;;;;4932327;29;20454;-60
2023/09/22 11:59:06;;;;;;;0.10;0.10;;;;;;;;;;4930074;29;20293;-61
2023/09/22 12:01:32;;;;;;;0.10;0.10;;;;;;;;;;4931042;29;20102;-61
2023/09/22 12:03:58;;;;;;;0.20;0.20;;;;;;;;;;4932140;29;20217;-62
2023/09/22 12:06:23;;;;;;;0.20;0.20;;;;;;;;;;4929613;29;20076;-61
2023/09/22 12:08:48;;;;;;;0.10;0.10;;;;;;;;;;4931780;29;20032;-61
2023/09/22 12:11:13;;;;;;;0.10;0.10;;;;;;;;;;4931894;29;20066;-61
2023/09/22 12:13:40;;;;;;;0.10;0.10;;;;;;;;;;4962733;28;20377;-62
2023/09/22 12:16:06;;;;;;;0.10;0.10;;;;;;;;;;4931273;29;20046;-62
2023/09/22 12:18:31;;;;;;;0.10;0.10;;;;;;;;;;4931610;29;20036;-60
2023/09/22 12:20:56;;;;;;;0.10;0.10;;;;;;;;;;4931731;28;20080;-64
2023/09/22 12:23:22;;;;;;;0.10;0.10;;;;;;;;;;4931330;29;20486;-63
2023/09/22 12:25:47;;;;;;;0.10;0.10;;;;;;;;;;4962220;28;20031;-61
2023/09/22 12:28:12;;;;;;;0.10;0.10;;;;;;;;;;4932007;29;20367;-61
2023/09/22 12:30:38;;;;;;;0.10;0.10;;;;;;;;;;4931079;29;20363;-61
2023/09/22 12:33:03;;;;;;;0.10;0.10;;;;;;;;;;4929326;29;20120;-61
2023/09/22 12:35:29;;;;;;;0.10;0.10;;;;;;;;;;4932382;29;20713;-61
2023/09/22 12:37:54;;;;;;;0.10;0.10;;;;;;;;;;4958630;28;20036;-62
2023/09/22 12:40:19;;;;;;;0.20;0.20;;;;;;;;;;4945438;28;20040;-62
2023/09/22 12:42:45;;;;;;;0.20;0.20;;;;;;;;;;4931141;29;20505;-62
2023/09/22 12:45:10;;;;;;;0.20;0.20;;;;;;;;;;4929749;29;20138;-61
2023/09/22 12:47:36;;;;;;;0.22;0.22;;;;;;;;;;4931155;29;20485;-62
2023/09/22 12:50:05;;;;;;;0.20;0.20;;;;;;;;;;4932764;29;20027;-65
2023/09/22 12:52:33;;;;;;;0.20;0.20;;;;;;;;;;4930806;29;20160;-63
2023/09/22 12:54:58;;;;;;;0.20;0.20;;;;;;;;;;4930949;29;20478;-61
2023/09/22 12:57:24;;;;;;;0.10;0.10;;;;;;;;;;4931195;29;20482;-63
2023/09/22 12:59:49;;;;;;;0.10;0.10;;;;;;;;;;4930840;29;20031;-64
2023/09/22 13:02:15;;;;;;;0.10;0.10;;;;;;;;;;4930537;29;20474;-62
2023/09/22 13:04:40;;;;;;;0.10;0.10;;;;;;;;;;4931170;29;20130;-64
2023/09/22 13:07:05;;;;;;;0.20;0.20;;;;;;;;;;4930317;29;20093;-66
2023/09/22 13:09:31;;;;;;;0.10;0.10;;;;;;;;;;4931279;29;20106;-65
2023/09/22 13:11:56;;;;;;;0.20;0.20;;;;;;;;;;4930743;29;20465;-63
2023/09/22 13:14:21;;;;;;;0.10;0.10;;;;;;;;;;4930891;29;20036;-64
2023/09/22 13:16:48;;;;;;;0.10;0.10;;;;;;;;;;4929303;29;20028;-62
2023/09/22 13:19:13;;;;;;;;;;;;;;;;;;4961770;28;20135;-64
2023/09/22 13:21:38;;;;;;;0.00;0.00;;;;;;;;;;4931738;29;20383;-63
2023/09/22 13:24:06;;;;;;;0.10;0.10;;;;;;;;;;4945255;29;20082;-63
2023/09/22 13:26:31;;;;;;;0.00;0.00;;;;;;;;;;4930775;29;20036;-65
2023/09/22 13:28:57;;;;;;;0.00;0.00;;;;;;;;;;4961422;28;20059;-63
2023/09/22 13:31:23;;;;;;;0.00;0.00;;;;;;;;;;4960771;28;20556;-63
2023/09/22 13:33:49;;;;;;;0.00;0.00;;;;;;;;;;4943841;28;20051;-64
2023/09/22 13:36:15;;;;;;;0.00;0.00;;;;;;;;;;4928696;29;20036;-63
2023/09/22 13:38:40;;;;;;;0.00;0.00;;;;;;;;;;4931477;29;20027;-62
2023/09/22 13:41:12;;;;;;;0.00;0.00;;;;;;;;;;4930461;29;20031;-64
2023/09/22 13:43:38;;;;;;;0.00;0.00;;;;;;;;;;4930635;29;20043;-64
2023/09/22 13:46:09;;;;;;;0.00;0.00;;;;;;;;;;4930001;29;20040;-63
2023/09/22 13:48:35;;;;;;;0.00;0.00;;;;;;;;;;4928341;29;20274;-62
2023/09/22 13:51:00;;;;;;;0.10;0.10;;;;;;;;;;4927615;29;20425;-63
2023/09/22 13:53:25;;;;;;;0.10;0.10;;;;;;;;;;4928807;29;20043;-64
2023/09/22 13:55:51;;;;;;;0.10;0.10;;;;;;;;;;4931604;29;20050;-63
2023/09/22 13:58:16;;;;;;;0.10;0.10;;;;;;;;;;4930508;29;20099;-63
2023/09/22 14:00:42;;;;;;;0.10;0.10;;;;;;;;;;4930469;29;20472;-65
2023/09/22 14:03:08;;;;;;;0.10;0.10;;;;;;;;;;4930118;29;20081;-62
2023/09/22 14:05:34;;;;;;;0.10;0.10;;;;;;;;;;4929400;29;20031;-62
2023/09/22 14:08:00;;;;;;;0.10;0.10;;;;;;;;;;4930167;29;20071;-64
2023/09/22 14:10:25;;;;;;;0.10;0.10;;;;;;;;;;4930588;29;20032;-62
2023/09/22 14:12:51;;;;;;;0.10;0.10;;;;;;;;;;4930530;29;20787;-62
2023/09/22 14:15:19;;;;;;;0.20;0.20;;;;;;;;;;4929946;29;20058;-63
2023/09/22 14:17:45;;;;;;;0.10;0.10;;;;;;;;;;4929143;29;20071;-63
2023/09/22 14:20:11;;;;;;;0.10;0.10;;;;;;;;;;4928699;29;20063;-62
2023/09/22 14:22:36;;;;;;;0.13;0.13;;;;;;;;;;4931148;29;20066;-64
2023/09/22 14:25:03;;;;;;;0.10;0.10;;;;;;;;;;4928514;29;20047;-63
2023/09/22 14:27:28;;;;;;;0.10;0.10;;;;;;;;;;4930693;29;20114;-63
2023/09/22 14:29:53;;;;;;;0.10;0.10;;;;;;;;;;4930098;29;20131;-63
2023/09/22 14:32:19;;;;;;;0.10;0.10;;;;;;;;;;4944119;29;20070;-64
2023/09/22 14:34:44;;;;;;;0.10;0.10;;;;;;;;;;4929386;29;20048;-66
2023/09/22 14:37:09;;;;;;;0.07;0.07;;;;;;;;;;4929931;29;20083;-65
2023/09/22 14:39:35;;;;;;;0.00;0.00;;;;;;;;;;4929951;29;20278;-64